Archival Weather

Yakutsk

Yakutsk, Russia (UEEE)

Report from: Tuesday, June 6, 2023 4:00 AM JST
Current time: Wednesday, May 29, 2024 5:50 PM JST

Current weather – Weather history – Daily summaries
Weather forecast

Temperature9.0°C (48.2°F)
Wind chill6.3°C (43.4°F)
Dew point3.0°C (37.4°F)
Winds 9.7 kts (5 m/s, 11.2 mph) Northwest (310°)
Clouds Sky clear
Altimeter29.50 in.Hg (999 mB)
Precip. events QF 6:21 AM
Relative humidity66 %
Density altitude-120 ft. (-36 m)
Remarks Ceiling and visibility OK
No significant changes expected in the next two hours
Flight conditions Visual Meteorological Conditions
Raw dataUEEE 051900Z 31005MPS CAVOK 09/03 Q0999 R05/09//60 NOSIG RMK QFE741
An error has occurred. This application may no longer respond until reloaded. Reload 🗙